Time;durP1;ratioP1;P1;durP2;ratioP2;P2;SDS_P1;SDS_P2;PMS_P1;PMS_P2;Temp;Humidity;BMP_temperature;BMP_pressure;BME280_temperature;BME280_humidity;BME280_pressure;Samples;Min_cycle;Max_cycle;Signal;HPM_P1;HPM_P2
2022/08/28 00:00:28;;;;;;;49.88;8.73;;;;;;;25.07;51.78;100301.16;5052209;28;20032;-75
2022/08/28 00:02:54;;;;;;;49.50;8.07;;;;;;;25.10;51.81;100306.19;5052632;28;20052;-75
2022/08/28 00:05:23;;;;;;;47.00;8.20;;;;;;;25.05;52.44;100309.63;5052630;28;20467;-75
2022/08/28 00:07:49;;;;;;;61.70;9.93;;;;;;;25.03;52.45;100305.41;5051882;28;20056;-75
2022/08/28 00:10:18;;;;;;;40.35;7.93;;;;;;;25.15;52.31;100304.44;5052393;28;20535;-75
2022/08/28 00:12:45;;;;;;;57.67;10.30;;;;;;;25.12;52.34;100315.91;5052453;28;20017;-75
2022/08/28 00:15:18;;;;;;;58.28;8.90;;;;;;;25.10;52.40;100314.47;5051363;28;20056;-74
2022/08/28 00:17:44;;;;;;;59.67;8.85;;;;;;;25.17;52.35;100320.72;5051928;28;20027;-75
2022/08/28 00:20:12;;;;;;;62.88;10.25;;;;;;;25.18;52.63;100308.66;5052268;28;20021;-75
2022/08/28 00:22:38;;;;;;;57.35;9.63;;;;;;;25.15;53.74;100311.84;5052205;28;20444;-75
2022/08/28 00:25:07;;;;;;;45.08;10.23;;;;;;;25.13;53.86;100308.50;5052394;28;20032;-76
2022/08/28 00:30:38;;;;;;;70.78;12.48;;;;;;;25.19;53.98;100315.84;5010414;28;20060;-76
2022/08/28 00:33:32;;;;;;;67.40;9.95;;;;;;;25.21;54.04;100310.94;5044394;28;20037;-76
2022/08/28 00:35:59;;;;;;;64.70;9.18;;;;;;;25.18;54.34;100301.25;5050095;28;20045;-76
2022/08/28 00:38:26;;;;;;;65.25;10.30;;;;;;;25.13;54.34;100314.00;5051025;28;20025;-76
2022/08/28 00:40:55;;;;;;;49.35;9.57;;;;;;;25.21;53.95;100308.19;5050829;28;20024;-76
2022/08/28 00:43:44;;;;;;;46.92;8.60;;;;;;;25.23;53.38;100306.03;5051309;28;20056;-76
2022/08/28 00:46:22;;;;;;;47.20;9.27;;;;;;;25.15;52.92;100292.59;5051240;28;20063;-76
2022/08/28 00:48:48;;;;;;;50.70;10.20;;;;;;;25.17;52.87;100298.69;5050998;28;20164;-76
2022/08/28 00:54:01;;;;;;;54.03;10.00;;;;;;;25.22;52.74;100290.63;5051330;28;20036;-76
2022/08/28 00:56:29;;;;;;;63.22;9.70;;;;;;;25.22;52.67;100290.63;5051273;28;20140;-76
2022/08/28 00:58:56;;;;;;;51.58;9.35;;;;;;;25.30;52.40;100293.06;5050692;28;20104;-76
2022/08/28 01:01:21;;;;;;;39.65;9.10;;;;;;;25.30;52.49;100302.16;5050632;28;20071;-76
2022/08/28 01:03:47;;;;;;;55.45;11.65;;;;;;;25.33;52.46;100304.47;5051347;28;20029;-76
2022/08/28 01:06:15;;;;;;;54.65;9.48;;;;;;;25.35;52.58;100305.06;5051237;28;20044;-76
2022/08/28 01:08:45;;;;;;;58.00;10.85;;;;;;;25.32;52.81;100302.78;5050766;28;20087;-76
2022/08/28 01:11:12;;;;;;;61.03;9.25;;;;;;;25.30;52.75;100302.16;5051101;28;20428;-76
2022/08/28 01:13:40;;;;;;;58.20;9.68;;;;;;;25.20;53.37;100299.09;5050718;28;20471;-76
2022/08/28 01:16:07;;;;;;;48.28;8.95;;;;;;;25.13;54.00;100311.25;5051217;28;20057;-76
2022/08/28 01:18:34;;;;;;;43.97;10.13;;;;;;;25.16;54.40;100302.53;5050721;28;20025;-76
2022/08/28 01:21:23;;;;;;;46.67;9.60;;;;;;;25.17;54.61;100312.47;5051186;28;20116;-76
2022/08/28 01:23:55;;;;;;;63.72;10.60;;;;;;;25.01;55.35;100307.56;5031365;28;20464;-76
2022/08/28 01:26:21;;;;;;;56.63;11.18;;;;;;;24.95;55.49;100306.56;5031331;28;20091;-76
2022/08/28 01:28:47;;;;;;;55.63;11.07;;;;;;;24.85;56.04;100307.06;5049342;28;20111;-76
2022/08/28 01:31:15;;;;;;;53.67;10.05;;;;;;;24.89;55.90;100311.03;5050862;28;20108;-76
2022/08/28 01:33:42;;;;;;;45.90;11.93;;;;;;;24.88;55.77;100303.88;5050776;28;20101;-76
2022/08/28 01:36:09;;;;;;;54.85;9.88;;;;;;;24.88;55.78;100303.03;5051401;28;20033;-75
2022/08/28 01:38:36;;;;;;;51.70;10.02;;;;;;;24.94;55.63;100306.78;5049521;28;20033;-75
2022/08/28 01:41:02;;;;;;;47.28;9.52;;;;;;;24.88;55.72;100301.13;5050827;28;20033;-75
2022/08/28 01:43:30;;;;;;;61.53;11.80;;;;;;;24.94;55.26;100304.03;5050850;28;20040;-75
2022/08/28 01:46:03;;;;;;;85.10;10.95;;;;;;;24.84;55.36;100305.38;5050853;28;20063;-75
2022/08/28 01:48:31;;;;;;;81.18;10.48;;;;;;;24.81;55.49;100292.06;5051090;28;20434;-75
2022/08/28 01:50:57;;;;;;;69.85;10.60;;;;;;;24.89;55.25;100302.78;5053287;28;20107;-76
2022/08/28 01:53:25;;;;;;;43.40;10.50;;;;;;;24.70;55.35;100298.28;5054484;28;20068;-75
2022/08/28 01:55:52;;;;;;;50.67;10.10;;;;;;;24.61;55.37;100294.13;5054833;28;20113;-75
2022/08/28 01:58:19;;;;;;;68.25;11.05;;;;;;;24.68;54.87;100297.66;5054665;28;20041;-76
2022/08/28 02:00:45;;;;;;;43.40;9.60;;;;;;;24.73;55.25;100299.75;5054802;28;20037;-75
2022/08/28 02:03:11;;;;;;;63.80;10.40;;;;;;;24.75;55.10;100301.19;5054746;28;20454;-75
2022/08/28 02:05:37;;;;;;;53.35;10.95;;;;;;;24.78;54.91;100299.91;5054324;28;20036;-75
2022/08/28 02:08:03;;;;;;;50.10;9.45;;;;;;;24.73;55.62;100303.34;5054694;28;20043;-75
2022/08/28 02:10:31;;;;;;;42.67;9.15;;;;;;;24.77;55.53;100307.31;5053382;28;20449;-75
2022/08/28 02:12:57;;;;;;;65.53;11.82;;;;;;;24.69;55.53;100293.84;5054480;28;20037;-75
2022/08/28 02:15:24;;;;;;;58.70;10.20;;;;;;;24.73;55.40;100297.84;5054652;28;20110;-75
2022/08/28 02:17:50;;;;;;;51.20;8.55;;;;;;;24.80;55.31;100300.50;5054364;28;20071;-75
2022/08/28 02:20:16;;;;;;;48.83;8.30;;;;;;;24.83;55.03;100303.69;5054487;28;20025;-75
2022/08/28 02:22:42;;;;;;;53.28;8.70;;;;;;;24.88;54.90;100292.03;5054615;28;20033;-75
2022/08/28 02:25:08;;;;;;;51.20;9.82;;;;;;;24.94;54.74;100309.53;5054398;28;20043;-75
2022/08/28 02:27:34;;;;;;;52.88;10.85;;;;;;;24.92;54.96;100302.31;5054231;28;20052;-76
2022/08/28 02:30:00;;;;;;;79.45;11.43;;;;;;;24.88;55.02;100306.63;5054383;28;20036;-75
2022/08/28 02:32:26;;;;;;;63.97;11.15;;;;;;;24.90;55.01;100301.72;5054429;28;20025;-75
2022/08/28 02:34:53;;;;;;;62.53;10.25;;;;;;;24.95;55.30;100309.31;5054179;28;20108;-75
2022/08/28 02:37:20;;;;;;;53.20;10.50;;;;;;;24.96;55.24;100307.38;5054476;28;20036;-76
2022/08/28 02:39:46;;;;;;;49.83;9.30;;;;;;;24.87;55.41;100299.44;5054085;28;20029;-76
2022/08/28 02:42:12;;;;;;;58.33;10.05;;;;;;;24.81;55.50;100303.06;5054232;28;20111;-76
2022/08/28 02:44:37;;;;;;;61.08;9.65;;;;;;;24.79;55.72;100313.44;5053988;28;20459;-77
2022/08/28 02:47:03;;;;;;;48.80;9.88;;;;;;;24.68;56.33;100316.91;5054147;28;20792;-77
2022/08/28 02:49:29;;;;;;;53.42;11.00;;;;;;;24.63;56.12;100314.00;5052800;28;20037;-77
2022/08/28 02:51:56;;;;;;;61.53;11.18;;;;;;;24.49;56.62;100306.91;5053851;28;20462;-77
2022/08/28 02:54:22;;;;;;;53.47;12.10;;;;;;;24.52;56.79;100320.22;5053741;28;20045;-77
2022/08/28 02:56:48;;;;;;;85.07;15.15;;;;;;;24.45;57.41;100322.16;5053907;28;20032;-77
2022/08/28 02:59:13;;;;;;;78.00;15.05;;;;;;;24.46;57.27;100326.63;5054116;28;20024;-77
2022/08/28 03:01:39;;;;;;;88.07;16.33;;;;;;;24.35;57.77;100319.06;5051554;28;20077;-76
2022/08/28 03:04:04;;;;;;;62.92;13.50;;;;;;;;;;5053587;28;20055;-75
2022/08/28 03:06:31;;;;;;;69.45;12.57;;;;;;;24.14;58.60;100317.50;5051214;28;20040;-75
2022/08/28 03:08:57;;;;;;;50.28;13.02;;;;;;;24.22;58.25;100325.47;5053115;28;20116;-76
2022/08/28 03:11:23;;;;;;;57.50;10.35;;;;;;;24.19;58.27;100327.81;5053035;28;20470;-76
2022/08/28 03:13:49;;;;;;;46.50;10.50;;;;;;;24.19;58.58;100331.41;5052660;28;20083;-77
2022/08/28 03:16:15;;;;;;;65.53;12.43;;;;;;;24.14;58.45;100327.66;5051572;28;20414;-75
2022/08/28 03:18:41;;;;;;;64.50;11.48;;;;;;;24.16;58.75;100320.00;5051505;28;20486;-79
2022/08/28 03:21:07;;;;;;;51.88;10.75;;;;;;;24.15;58.84;100315.59;5052636;28;20028;-79
2022/08/28 03:23:33;;;;;;;58.25;11.40;;;;;;;24.15;58.89;100321.09;5052836;28;20056;-76
2022/08/28 03:26:11;;;;;;;44.72;11.25;;;;;;;24.16;58.70;100323.63;5052792;28;20467;-78
2022/08/28 03:28:44;;;;;;;68.75;10.20;;;;;;;24.14;59.17;100330.41;5053048;28;20017;-76
2022/08/28 03:31:13;;;;;;;53.38;11.35;;;;;;;24.14;59.17;100331.25;5052713;28;20037;-76
2022/08/28 03:33:40;;;;;;;50.72;9.77;;;;;;;24.14;59.27;100330.41;5052291;28;20024;-75
2022/08/28 03:36:07;;;;;;;49.10;9.55;;;;;;;24.22;59.47;100339.22;5052483;28;20410;-78
2022/08/28 03:38:34;;;;;;;60.33;11.63;;;;;;;24.26;59.58;100334.13;5052056;28;20056;-76
2022/08/28 03:41:00;;;;;;;60.67;11.32;;;;;;;24.20;59.82;100335.88;5052789;28;20124;-76
2022/08/28 03:43:27;;;;;;;54.28;11.73;;;;;;;24.21;59.74;100332.06;5052432;28;20181;-75
2022/08/28 03:45:58;;;;;;;64.85;11.05;;;;;;;24.21;59.72;100334.81;5052245;28;20021;-74
2022/08/28 03:48:28;;;;;;;49.07;11.77;;;;;;;24.21;59.67;100339.47;5052841;28;20028;-77
2022/08/28 03:50:55;;;;;;;56.13;12.77;;;;;;;24.17;59.53;100329.97;5052486;28;20028;-77
2022/08/28 03:53:21;;;;;;;82.15;17.88;;;;;;;24.16;59.90;100333.75;5052247;28;20033;-76
2022/08/28 03:55:47;;;;;;;88.28;17.77;;;;;;;24.01;60.62;100331.28;5051647;28;20048;-73
2022/08/28 03:58:14;;;;;;;78.07;17.38;;;;;;;24.07;60.46;100351.53;5051915;28;20482;-73
2022/08/28 04:00:44;;;;;;;74.25;18.45;;;;;;;24.03;60.77;100347.56;5051839;28;20411;-75
2022/08/28 04:03:13;;;;;;;76.63;17.10;;;;;;;24.08;60.44;100353.22;5051370;28;20028;-73
2022/08/28 04:05:40;;;;;;;69.15;16.25;;;;;;;24.12;60.38;100354.53;5051344;28;20059;-73
2022/08/28 04:08:06;;;;;;;95.82;15.50;;;;;;;24.15;60.21;100356.81;5051937;28;20025;-73
2022/08/28 04:10:33;;;;;;;84.28;17.38;;;;;;;24.02;60.74;100349.47;5051766;28;20103;-75
2022/08/28 04:12:59;;;;;;;72.25;15.68;;;;;;;24.07;60.54;100359.78;5051121;28;20040;-75
2022/08/28 04:15:26;;;;;;;68.78;14.98;;;;;;;24.09;60.72;100354.91;5050423;28;20482;-75
2022/08/28 04:17:52;;;;;;;86.97;15.93;;;;;;;24.14;60.25;100357.88;5051844;28;20029;-75
2022/08/28 04:20:19;;;;;;;72.65;15.25;;;;;;;24.10;60.48;100359.34;5051414;28;20032;-74
2022/08/28 04:22:44;;;;;;;70.60;14.65;;;;;;;24.09;60.64;100352.19;5051275;28;20056;-75
2022/08/28 04:25:10;;;;;;;78.53;16.38;;;;;;;24.11;60.80;100352.81;5051589;28;20063;-75
2022/08/28 04:27:35;;;;;;;81.45;16.95;;;;;;;24.10;60.43;100342.84;5051611;28;20112;-74
2022/08/28 04:30:02;;;;;;;73.55;15.77;;;;;;;24.06;60.62;100349.88;5051686;28;20099;-76
2022/08/28 04:32:27;;;;;;;62.85;14.70;;;;;;;24.00;61.00;100353.50;5051544;28;20046;-75
2022/08/28 04:34:53;;;;;;;69.82;15.55;;;;;;;24.04;60.77;100362.97;5051374;28;20028;-76
2022/08/28 04:37:18;;;;;;;59.60;15.77;;;;;;;24.08;60.49;100354.06;5051512;28;20119;-74
2022/08/28 04:39:44;;;;;;;66.65;17.30;;;;;;;24.10;60.07;100356.59;5051559;28;20463;-75
2022/08/28 04:42:10;;;;;;;78.03;15.77;;;;;;;23.98;60.64;100348.19;5050876;28;20036;-75
2022/08/28 04:44:35;;;;;;;67.57;17.05;;;;;;;24.09;60.32;100361.28;5051442;28;20029;-75
2022/08/28 04:47:01;;;;;;;68.18;15.95;;;;;;;24.21;59.57;100355.94;5051139;28;20029;-75
2022/08/28 04:49:26;;;;;;;59.35;16.08;;;;;;;24.24;59.56;100364.59;5051304;28;20027;-73
2022/08/28 04:51:53;;;;;;;78.63;27.23;;;;;;;24.29;59.45;100363.94;5051271;28;20021;-75
2022/08/28 04:54:19;;;;;;;109.38;35.25;;;;;;;24.20;59.62;100352.34;5051214;28;20088;-74
2022/08/28 04:56:45;;;;;;;95.70;33.03;;;;;;;24.16;59.71;100355.75;5050603;28;20475;-76
2022/08/28 04:59:11;;;;;;;103.00;39.78;;;;;;;24.28;59.62;100354.81;5050764;28;20043;-73
2022/08/28 05:01:38;;;;;;;174.85;70.20;;;;;;;24.37;59.84;100369.19;5051587;28;20031;-75
2022/08/28 05:04:04;;;;;;;205.63;86.15;;;;;;;24.44;59.72;100364.47;5053380;28;20132;-75
2022/08/28 05:06:31;;;;;;;190.55;87.13;;;;;;;24.48;59.71;100368.47;5052257;28;20507;-75
2022/08/28 05:08:59;;;;;;;189.07;84.63;;;;;;;24.53;59.71;100368.63;5052055;28;20121;-74
2022/08/28 05:11:26;;;;;;;174.32;77.43;;;;;;;24.64;59.61;100365.19;5051938;28;20041;-75
2022/08/28 05:13:52;;;;;;;164.77;70.47;;;;;;;24.74;59.51;100375.66;5051335;28;20032;-74
2022/08/28 05:16:19;;;;;;;158.60;65.30;;;;;;;24.78;59.05;100366.75;5051322;28;20037;-76
2022/08/28 05:18:46;;;;;;;171.10;58.47;;;;;;;24.86;58.91;100374.75;5050943;28;20025;-76
2022/08/28 05:21:13;;;;;;;133.50;57.42;;;;;;;24.88;58.75;100364.41;5050554;28;20029;-75
2022/08/28 05:23:40;;;;;;;139.93;49.85;;;;;;;24.97;58.67;100358.59;5050947;28;20033;-76
2022/08/28 05:26:10;;;;;;;134.43;49.13;;;;;;;25.04;58.31;100371.25;5056393;28;20056;-75
2022/08/28 05:28:35;;;;;;;126.63;50.55;;;;;;;25.07;58.13;100359.78;5057337;28;20107;-76
2022/08/28 05:31:12;;;;;;;149.05;62.70;;;;;;;25.18;57.85;100361.81;5057270;28;20470;-77
2022/08/28 05:33:38;;;;;;;159.20;64.95;;;;;;;25.20;57.74;100367.91;5055182;28;20418;-76
2022/08/28 05:36:07;;;;;;;159.57;71.80;;;;;;;25.24;57.74;100376.56;5057303;28;20045;-76
2022/08/28 05:38:33;;;;;;;164.35;65.28;;;;;;;25.32;57.43;100373.50;5057489;28;20037;-77
2022/08/28 05:41:00;;;;;;;142.18;58.47;;;;;;;25.30;57.23;100364.63;5057225;28;20029;-78
2022/08/28 05:43:26;;;;;;;154.85;63.58;;;;;;;25.40;57.04;100371.31;5050534;28;20088;-74
2022/08/28 05:45:59;;;;;;;155.93;60.67;;;;;;;25.51;56.89;100385.44;5057396;28;20068;-80
2022/08/28 05:48:26;;;;;;;154.23;56.92;;;;;;;25.48;56.87;100381.19;5055625;28;20028;-76
2022/08/28 05:50:52;;;;;;;147.27;56.28;;;;;;;25.60;56.78;100386.81;5057423;28;20062;-75
2022/08/28 05:53:18;;;;;;;162.68;52.72;;;;;;;25.68;56.25;100384.63;5057499;28;20029;-75
2022/08/28 05:55:44;;;;;;;105.75;45.38;;;;;;;25.73;56.42;100382.00;5056882;28;20056;-78
2022/08/28 05:58:27;;;;;;;134.48;45.30;;;;;;;25.89;56.58;100384.16;5057144;28;20490;-76
2022/08/28 06:00:53;;;;;;;113.70;38.30;;;;;;;25.95;55.80;100388.75;5057362;28;20059;-76
2022/08/28 06:03:21;;;;;;;109.80;37.03;;;;;;;26.04;55.66;100383.75;5055772;28;20048;-76
2022/08/28 06:05:54;;;;;;;112.57;39.35;;;;;;;26.11;55.53;100384.53;5056841;28;20108;-80
2022/08/28 06:08:20;;;;;;;105.03;39.38;;;;;;;26.20;55.28;100382.31;5057183;28;20123;-77
2022/08/28 06:10:45;;;;;;;106.00;38.38;;;;;;;26.25;55.15;100380.53;5057249;28;20029;-77
2022/08/28 06:13:11;;;;;;;117.22;39.10;;;;;;;26.34;54.91;100373.63;5057169;28;20033;-77
2022/08/28 06:15:44;;;;;;;93.97;36.33;;;;;;;26.46;54.40;100379.19;5057262;28;20386;-76
2022/08/28 06:18:11;;;;;;;121.13;37.45;;;;;;;26.57;53.98;100378.41;5057280;28;20115;-77
2022/08/28 06:20:41;;;;;;;108.43;36.38;;;;;;;26.66;54.10;100382.50;5056977;28;20040;-76
2022/08/28 06:23:08;;;;;;;163.82;35.17;;;;;;;26.77;53.66;100384.44;5056574;28;20035;-75
2022/08/28 06:25:47;;;;;;;102.47;29.65;;;;;;;26.87;53.31;100381.97;5056706;28;20032;-76
2022/08/28 06:28:19;;;;;;;81.78;29.30;;;;;;;27.00;52.95;100384.50;5056175;28;20035;-75
2022/08/28 06:30:44;;;;;;;90.00;28.73;;;;;;;27.08;52.48;100385.25;5056163;28;20055;-75
2022/08/28 06:33:11;;;;;;;106.32;31.33;;;;;;;27.13;52.73;100383.44;5056266;28;20061;-75
2022/08/28 06:35:44;;;;;;;104.47;30.08;;;;;;;27.27;52.57;100386.84;5056593;28;20029;-76
2022/08/28 06:38:11;;;;;;;83.55;27.08;;;;;;;27.39;52.43;100388.53;5052219;28;20045;-77
2022/08/28 06:40:51;;;;;;;73.72;26.60;;;;;;;27.48;52.59;100380.72;5053136;28;20036;-76
2022/08/28 06:43:19;;;;;;;92.65;28.80;;;;;;;27.59;51.43;100382.63;5051740;28;20122;-77
2022/08/28 06:45:47;;;;;;;110.80;27.77;;;;;;;27.66;51.05;100386.13;5053287;28;20080;-75
2022/08/28 06:48:15;;;;;;;115.85;26.77;;;;;;;27.74;51.16;100380.22;5053317;28;20041;-75
2022/08/28 06:50:43;;;;;;;86.18;25.17;;;;;;;27.84;51.42;100385.97;5052665;28;20033;-75
2022/08/28 06:53:11;;;;;;;77.47;24.38;;;;;;;27.93;50.77;100384.50;5052735;28;20112;-76
2022/08/28 06:55:37;;;;;;;107.68;25.65;;;;;;;28.00;50.77;100379.69;5052530;28;20127;-75
2022/08/28 06:58:09;;;;;;;90.05;21.38;;;;;;;28.13;50.42;100380.53;5053382;28;20051;-79
2022/08/28 07:00:35;;;;;;;87.80;22.80;;;;;;;28.29;49.67;100383.34;5053061;28;20079;-78
2022/08/28 07:03:04;;;;;;;89.40;25.50;;;;;;;28.38;49.28;100387.38;5052868;28;20056;-77
2022/08/28 07:05:31;;;;;;;79.95;22.05;;;;;;;28.45;48.93;100376.19;5053095;28;20029;-77
2022/08/28 07:07:57;;;;;;;116.82;27.42;;;;;;;28.51;48.55;100375.19;5052823;28;20053;-78
2022/08/28 07:10:22;;;;;;;92.10;21.98;;;;;;;28.56;48.71;100367.81;5053321;28;20053;-75
2022/08/28 07:12:49;;;;;;;101.30;24.27;;;;;;;28.69;48.06;100382.47;5051835;28;20029;-77
2022/08/28 07:15:16;;;;;;;90.15;21.52;;;;;;;28.76;47.38;100384.00;5052875;28;20493;-75
2022/08/28 07:17:41;;;;;;;95.13;28.00;;;;;;;28.83;47.99;100375.53;5052702;28;20021;-76
2022/08/28 07:20:10;;;;;;;108.03;27.70;;;;;;;28.96;48.16;100381.56;5050723;28;20090;-75
2022/08/28 07:22:36;;;;;;;87.85;28.25;;;;;;;28.99;47.66;100377.47;5052432;28;20057;-76
2022/08/28 07:25:03;;;;;;;85.28;25.13;;;;;;;29.10;46.75;100385.72;5052410;28;20056;-79
2022/08/28 07:27:30;;;;;;;76.75;21.73;;;;;;;29.18;46.33;100385.28;5052027;28;20025;-80
2022/08/28 07:29:57;;;;;;;89.55;22.92;;;;;;;29.28;45.93;100381.03;5050487;28;20425;-80
2022/08/28 07:32:23;;;;;;;89.22;21.60;;;;;;;29.36;45.83;100386.13;5052033;28;20394;-81
2022/08/28 07:34:49;;;;;;;67.45;20.38;;;;;;;29.43;45.98;100384.03;5052366;28;20527;-79
2022/08/28 07:37:18;;;;;;;90.70;21.27;;;;;;;29.50;45.98;100384.69;5052250;28;20162;-79
2022/08/28 07:39:43;;;;;;;84.28;20.83;;;;;;;29.63;45.31;100393.47;5053814;28;20021;-78
2022/08/28 07:42:09;;;;;;;125.43;29.92;;;;;;;29.72;45.44;100388.34;5051432;28;20391;-80
2022/08/28 07:44:50;;;;;;;47.28;11.30;;;;;;;29.79;43.60;100388.97;5052160;28;20036;-79
2022/08/28 07:47:17;;;;;;;96.35;13.25;;;;;;;29.87;43.22;100387.75;5041563;28;20033;-79
2022/08/28 07:49:43;;;;;;;53.03;11.18;;;;;;;29.93;41.84;100382.00;5051591;28;20081;-78
2022/08/28 07:52:10;;;;;;;57.47;13.45;;;;;;;30.00;42.86;100385.41;5052553;28;20025;-75
2022/08/28 07:54:39;;;;;;;70.45;12.57;;;;;;;30.15;43.25;100393.91;5051668;28;20037;-78
2022/08/28 07:57:06;;;;;;;50.10;13.07;;;;;;;30.23;42.94;100385.16;5052038;28;20606;-79
2022/08/28 07:59:31;;;;;;;65.15;13.10;;;;;;;30.36;43.57;100386.69;5052043;28;20056;-77
2022/08/28 08:01:58;;;;;;;77.88;15.63;;;;;;;30.41;44.44;100384.00;5051458;28;20455;-78
2022/08/28 08:04:24;;;;;;;65.18;14.57;;;;;;;30.49;44.73;100391.00;5054742;28;20032;-79
2022/08/28 08:06:54;;;;;;;68.70;13.95;;;;;;;30.54;44.91;100394.72;5055308;28;20028;-79
2022/08/28 08:09:20;;;;;;;62.10;12.18;;;;;;;30.64;45.28;100402.31;5065194;28;20036;-78
2022/08/28 08:11:46;;;;;;;71.45;12.98;;;;;;;30.70;45.14;100390.16;5060411;28;20032;-78
2022/08/28 08:14:13;;;;;;;77.18;15.18;;;;;;;30.60;45.89;100392.81;5054856;28;20056;-78
2022/08/28 08:16:42;;;;;;;66.10;14.02;;;;;;;30.71;45.89;100395.44;5050965;28;20035;-78
2022/08/28 08:19:12;;;;;;;68.57;14.85;;;;;;;30.74;46.08;100397.69;5048567;28;20037;-78
2022/08/28 08:21:38;;;;;;;76.57;13.68;;;;;;;30.51;46.92;100388.84;5050781;28;20025;-75
2022/08/28 08:24:04;;;;;;;63.47;14.43;;;;;;;30.64;47.49;100389.25;5050186;28;20039;-77
2022/08/28 08:26:30;;;;;;;64.75;13.75;;;;;;;30.70;48.09;100390.97;5048569;28;20494;-77
2022/08/28 08:28:57;;;;;;;80.90;12.57;;;;;;;30.79;48.05;100388.56;5053914;28;20039;-75
2022/08/28 08:31:25;;;;;;;52.47;13.18;;;;;;;30.86;48.22;100403.06;5050688;28;20036;-77
2022/08/28 08:33:56;;;;;;;69.78;12.80;;;;;;;30.86;48.41;100394.72;5051241;28;20059;-77
2022/08/28 08:36:24;;;;;;;69.07;13.57;;;;;;;30.94;48.96;100391.53;5051648;28;20115;-75
2022/08/28 08:38:50;;;;;;;45.40;10.55;;;;;;;30.93;48.76;100389.81;5051592;28;20028;-80
2022/08/28 08:41:22;;;;;;;59.20;12.18;;;;;;;30.84;49.38;100396.94;5051713;28;20037;-76
2022/08/28 08:44:10;;;;;;;79.87;13.47;;;;;;;30.81;50.25;100380.81;5050847;28;20042;-80
2022/08/28 08:46:52;;;;;;;63.75;11.63;;;;;;;30.71;49.98;100391.81;5051603;28;20094;-79
2022/08/28 08:49:20;;;;;;;61.97;11.95;;;;;;;30.66;49.66;100389.84;5050604;28;20028;-83
2022/08/28 08:51:58;;;;;;;76.30;14.02;;;;;;;30.48;51.08;100403.22;5051978;28;20608;-82
2022/08/28 08:54:23;;;;;;;57.92;11.38;;;;;;;30.48;52.18;100406.84;5043344;28;20132;-80
2022/08/28 08:56:53;;;;;;;71.13;13.70;;;;;;;30.48;51.82;100397.69;5052341;28;20566;-81
2022/08/28 08:59:24;;;;;;;74.18;13.35;;;;;;;30.48;52.09;100397.69;5050840;28;20058;-80
2022/08/28 09:02:11;;;;;;;69.75;12.48;;;;;;;30.59;52.09;100396.69;5051351;28;20104;-79
2022/08/28 09:04:39;;;;;;;66.78;13.68;;;;;;;30.57;50.79;100394.19;5043486;28;20029;-79
2022/08/28 09:07:23;;;;;;;61.70;11.52;;;;;;;30.65;50.77;100390.09;5066023;28;20039;-77
2022/08/28 09:09:54;;;;;;;57.95;12.57;;;;;;;30.63;50.58;100387.59;5051045;28;20491;-78
2022/08/28 09:12:21;;;;;;;64.97;12.38;;;;;;;30.84;49.68;100383.06;5051526;28;20456;-75
2022/08/28 09:15:03;;;;;;;84.38;13.68;;;;;;;30.93;50.38;100389.81;5054761;28;20033;-78
2022/08/28 09:17:34;;;;;;;71.90;13.40;;;;;;;30.97;49.55;100385.44;5053125;28;20057;-77
2022/08/28 09:20:00;;;;;;;96.65;13.02;;;;;;;31.02;49.04;100376.28;5047775;28;20256;-81
2022/08/28 09:22:25;;;;;;;50.65;10.38;;;;;;;31.11;48.30;100386.66;5049772;28;20033;-81
2022/08/28 09:24:56;;;;;;;61.88;11.30;;;;;;;31.16;46.97;100383.91;5049445;28;20516;-76
2022/08/28 09:27:30;;;;;;;59.15;11.18;;;;;;;31.29;45.79;100394.59;5049319;28;20406;-78
2022/08/28 09:30:00;;;;;;;68.53;11.82;;;;;;;31.42;45.93;100379.38;5049496;28;20048;-78
2022/08/28 09:32:28;;;;;;;50.38;12.93;;;;;;;31.42;44.32;100381.31;5052040;28;20025;-77
2022/08/28 09:35:13;;;;;;;69.75;10.52;;;;;;;31.51;42.68;100388.09;5049820;28;20033;-77
2022/08/28 09:37:40;;;;;;;77.32;11.27;;;;;;;31.66;42.99;100389.03;5050845;28;20494;-77
2022/08/28 09:40:24;;;;;;;83.03;11.00;;;;;;;31.75;42.65;100375.44;5049889;28;20036;-77
2022/08/28 09:46:11;;;;;;;54.78;10.85;;;;;;;32.00;41.55;100383.94;5050482;28;20032;-78
2022/08/28 09:48:42;;;;;;;59.97;9.07;;;;;;;32.13;40.00;100382.63;5041710;28;20043;-79
2022/08/28 09:51:09;;;;;;;83.83;10.83;;;;;;;31.98;40.19;100385.31;5050378;28;20053;-77
2022/08/28 09:53:55;;;;;;;56.67;10.38;;;;;;;31.93;41.42;100377.75;5050218;28;20502;-75
2022/08/28 09:56:25;;;;;;;55.08;9.93;;;;;;;32.02;40.84;100386.41;5050874;28;20052;-77
2022/08/28 09:58:59;;;;;;;52.42;9.73;;;;;;;32.09;42.39;100379.53;5050228;28;20071;-80
2022/08/28 10:01:44;;;;;;;48.88;11.18;;;;;;;32.05;43.95;100378.41;5047869;28;20025;-82
2022/08/28 10:04:45;;;;;;;54.88;11.52;;;;;;;32.11;44.59;100373.72;5052976;28;20032;-79
2022/08/28 10:07:38;;;;;;;66.60;10.73;;;;;;;32.05;46.80;100378.41;5049858;28;20032;-79
2022/08/28 10:10:34;;;;;;;56.90;13.38;;;;;;;32.15;47.71;100374.81;5050049;28;20091;-78
2022/08/28 10:13:10;;;;;;;71.25;14.15;;;;;;;31.92;48.35;100362.19;5054873;28;20035;-78
2022/08/28 10:16:13;;;;;;;70.32;14.80;;;;;;;31.90;48.50;100378.31;5054278;28;20029;-78
2022/08/28 10:18:55;;;;;;;50.70;12.60;;;;;;;31.95;46.55;100377.50;5053936;28;20037;-77
2022/08/28 10:21:21;;;;;;;60.47;13.05;;;;;;;31.97;47.42;100373.34;5054012;28;20025;-78
2022/08/28 10:24:08;;;;;;;58.28;11.40;;;;;;;32.03;47.57;100377.00;5053899;28;20031;-76
2022/08/28 10:26:43;;;;;;;76.35;12.43;;;;;;;32.22;47.55;100367.91;5048816;28;20150;-78
2022/08/28 10:29:44;;;;;;;58.08;13.23;;;;;;;32.32;48.71;100378.25;5034092;28;20052;-77
2022/08/28 10:32:31;;;;;;;63.40;12.82;;;;;;;32.26;49.34;100360.66;5034163;28;20037;-75
2022/08/28 10:35:13;;;;;;;46.70;9.18;;;;;;;32.33;49.46;100369.59;5034045;28;20053;-75
2022/08/28 10:38:09;;;;;;;87.78;13.60;;;;;;;32.29;49.27;100371.25;5034307;28;20037;-75
2022/08/28 10:40:57;;;;;;;78.78;12.10;;;;;;;32.47;49.08;100364.34;5033703;28;20083;-80
2022/08/28 10:43:32;;;;;;;55.90;11.30;;;;;;;32.65;48.61;100363.03;5041607;28;20025;-78
2022/08/28 10:46:03;;;;;;;62.20;10.43;;;;;;;32.80;48.71;100363.03;5054090;28;20032;-76
2022/08/28 10:48:49;;;;;;;68.82;10.02;;;;;;;32.86;47.43;100359.97;5053490;28;20040;-78
2022/08/28 10:51:20;;;;;;;51.70;10.02;;;;;;;33.14;45.91;100366.97;5053882;28;20033;-80
2022/08/28 10:53:55;;;;;;;69.45;9.90;;;;;;;33.33;44.70;100353.31;5053722;28;20134;-78
2022/08/28 10:56:29;;;;;;;46.90;9.77;;;;;;;33.39;44.49;100361.34;5053801;28;20510;-78
2022/08/28 10:59:00;;;;;;;65.32;10.63;;;;;;;33.44;44.31;100366.09;5053460;28;20021;-77
2022/08/28 11:01:33;;;;;;;44.87;10.47;;;;;;;33.38;43.20;100342.13;5053297;28;20410;-76
2022/08/28 11:04:03;;;;;;;34.90;8.98;;;;;;;33.42;41.48;100356.34;5053317;28;20058;-78
2022/08/28 11:06:38;;;;;;;51.78;7.85;;;;;;;33.15;41.72;100356.69;5053607;28;20059;-80
2022/08/28 11:09:25;;;;;;;43.25;10.07;;;;;;;33.04;42.64;100361.38;5051996;28;20040;-75
2022/08/28 11:12:01;;;;;;;55.40;10.05;;;;;;;32.97;43.14;100357.19;5051748;28;20028;-77
2022/08/28 11:14:37;;;;;;;54.65;9.90;;;;;;;32.79;44.73;100362.19;5051885;28;20029;-78
2022/08/28 11:17:09;;;;;;;49.67;9.77;;;;;;;32.75;45.06;100368.63;5053229;28;20463;-78
2022/08/28 11:19:59;;;;;;;57.58;9.50;;;;;;;32.57;43.31;100372.75;5053283;28;20037;-77
2022/08/28 11:22:48;;;;;;;53.03;9.35;;;;;;;32.68;45.67;100370.84;5052806;28;20040;-74
2022/08/28 11:25:17;;;;;;;60.85;11.15;;;;;;;32.61;48.43;100364.69;5053461;28;20021;-77
2022/08/28 11:28:10;;;;;;;57.30;10.45;;;;;;;32.64;48.25;100362.19;5053133;28;20024;-77
2022/08/28 11:30:36;;;;;;;44.30;9.32;;;;;;;32.67;48.89;100360.78;5053411;28;20028;-78